sensor_id;sensor_type;location;lat;lon;timestamp;P1;durP1;ratioP1;P2;durP2;ratioP2
21438;SDS011;10880;50.302;18.736;2024-03-06T00:00:06;39.47;;;18.87;;
21438;SDS011;10880;50.302;18.736;2024-03-06T00:02:36;49.23;;;22.37;;
21438;SDS011;10880;50.302;18.736;2024-03-06T00:05:03;56.97;;;24.80;;
21438;SDS011;10880;50.302;18.736;2024-03-06T00:07:30;66.30;;;28.67;;
21438;SDS011;10880;50.302;18.736;2024-03-06T00:09:56;68.67;;;29.23;;
21438;SDS011;10880;50.302;18.736;2024-03-06T00:12:23;64.53;;;28.67;;
21438;SDS011;10880;50.302;18.736;2024-03-06T00:14:50;59.70;;;24.83;;
21438;SDS011;10880;50.302;18.736;2024-03-06T00:17:16;51.67;;;21.83;;
21438;SDS011;10880;50.302;18.736;2024-03-06T00:19:42;55.97;;;24.20;;
21438;SDS011;10880;50.302;18.736;2024-03-06T00:22:09;45.23;;;20.77;;
21438;SDS011;10880;50.302;18.736;2024-03-06T00:24:35;39.83;;;16.93;;
21438;SDS011;10880;50.302;18.736;2024-03-06T00:27:02;42.10;;;19.97;;
21438;SDS011;10880;50.302;18.736;2024-03-06T00:29:30;62.30;;;26.83;;
21438;SDS011;10880;50.302;18.736;2024-03-06T00:31:57;51.87;;;21.80;;
21438;SDS011;10880;50.302;18.736;2024-03-06T00:34:23;54.77;;;24.37;;
21438;SDS011;10880;50.302;18.736;2024-03-06T00:36:49;47.73;;;21.10;;
21438;SDS011;10880;50.302;18.736;2024-03-06T00:39:16;41.60;;;18.97;;
21438;SDS011;10880;50.302;18.736;2024-03-06T00:41:42;41.93;;;18.40;;
21438;SDS011;10880;50.302;18.736;2024-03-06T00:44:09;38.53;;;17.80;;
21438;SDS011;10880;50.302;18.736;2024-03-06T00:46:36;56.67;;;23.70;;
21438;SDS011;10880;50.302;18.736;2024-03-06T00:49:02;63.53;;;27.93;;
21438;SDS011;10880;50.302;18.736;2024-03-06T00:51:29;84.67;;;34.83;;
21438;SDS011;10880;50.302;18.736;2024-03-06T00:53:55;77.97;;;33.50;;
21438;SDS011;10880;50.302;18.736;2024-03-06T00:56:22;70.43;;;30.30;;
21438;SDS011;10880;50.302;18.736;2024-03-06T00:58:49;71.47;;;30.33;;
21438;SDS011;10880;50.302;18.736;2024-03-06T01:01:16;66.97;;;28.50;;
21438;SDS011;10880;50.302;18.736;2024-03-06T01:03:43;52.30;;;23.73;;
21438;SDS011;10880;50.302;18.736;2024-03-06T01:06:10;55.67;;;23.80;;
21438;SDS011;10880;50.302;18.736;2024-03-06T01:08:37;47.73;;;19.53;;
21438;SDS011;10880;50.302;18.736;2024-03-06T01:11:05;41.83;;;17.70;;
21438;SDS011;10880;50.302;18.736;2024-03-06T01:13:32;36.07;;;16.37;;
21438;SDS011;10880;50.302;18.736;2024-03-06T01:15:58;32.80;;;14.87;;
21438;SDS011;10880;50.302;18.736;2024-03-06T01:18:24;26.60;;;13.70;;
21438;SDS011;10880;50.302;18.736;2024-03-06T01:20:51;28.63;;;12.73;;
21438;SDS011;10880;50.302;18.736;2024-03-06T01:23:18;26.47;;;12.10;;
21438;SDS011;10880;50.302;18.736;2024-03-06T01:25:44;23.33;;;12.30;;
21438;SDS011;10880;50.302;18.736;2024-03-06T01:28:11;19.53;;;10.90;;
21438;SDS011;10880;50.302;18.736;2024-03-06T01:30:38;20.70;;;10.20;;
21438;SDS011;10880;50.302;18.736;2024-03-06T01:33:04;20.53;;;11.10;;
21438;SDS011;10880;50.302;18.736;2024-03-06T01:35:31;20.57;;;10.07;;
21438;SDS011;10880;50.302;18.736;2024-03-06T01:37:57;29.93;;;14.77;;
21438;SDS011;10880;50.302;18.736;2024-03-06T01:40:24;37.17;;;18.20;;
21438;SDS011;10880;50.302;18.736;2024-03-06T01:42:50;39.17;;;18.77;;
21438;SDS011;10880;50.302;18.736;2024-03-06T01:45:17;36.33;;;16.70;;
21438;SDS011;10880;50.302;18.736;2024-03-06T01:47:43;22.17;;;11.73;;
21438;SDS011;10880;50.302;18.736;2024-03-06T01:50:10;27.10;;;14.10;;
21438;SDS011;10880;50.302;18.736;2024-03-06T01:52:37;24.37;;;11.80;;
21438;SDS011;10880;50.302;18.736;2024-03-06T01:55:06;30.57;;;14.90;;
21438;SDS011;10880;50.302;18.736;2024-03-06T01:57:33;31.87;;;16.50;;
21438;SDS011;10880;50.302;18.736;2024-03-06T02:00:01;39.67;;;17.33;;
21438;SDS011;10880;50.302;18.736;2024-03-06T02:02:30;34.87;;;18.10;;
21438;SDS011;10880;50.302;18.736;2024-03-06T02:04:57;38.03;;;19.03;;
21438;SDS011;10880;50.302;18.736;2024-03-06T02:07:25;31.50;;;16.33;;
21438;SDS011;10880;50.302;18.736;2024-03-06T02:09:52;40.43;;;19.17;;
21438;SDS011;10880;50.302;18.736;2024-03-06T02:12:18;32.97;;;16.33;;
21438;SDS011;10880;50.302;18.736;2024-03-06T02:14:45;36.70;;;18.07;;
21438;SDS011;10880;50.302;18.736;2024-03-06T02:17:11;39.80;;;19.37;;
21438;SDS011;10880;50.302;18.736;2024-03-06T02:19:42;43.90;;;20.07;;
21438;SDS011;10880;50.302;18.736;2024-03-06T02:22:10;32.50;;;16.33;;
21438;SDS011;10880;50.302;18.736;2024-03-06T02:24:37;33.00;;;15.30;;
21438;SDS011;10880;50.302;18.736;2024-03-06T02:27:06;28.93;;;14.13;;
21438;SDS011;10880;50.302;18.736;2024-03-06T02:29:33;30.07;;;14.47;;
21438;SDS011;10880;50.302;18.736;2024-03-06T02:32:01;22.87;;;11.23;;
21438;SDS011;10880;50.302;18.736;2024-03-06T02:34:28;24.40;;;10.97;;
21438;SDS011;10880;50.302;18.736;2024-03-06T02:36:58;24.37;;;11.93;;
21438;SDS011;10880;50.302;18.736;2024-03-06T02:39:24;22.40;;;11.27;;
21438;SDS011;10880;50.302;18.736;2024-03-06T02:41:51;24.80;;;11.10;;
21438;SDS011;10880;50.302;18.736;2024-03-06T02:44:17;21.23;;;10.60;;
21438;SDS011;10880;50.302;18.736;2024-03-06T02:46:47;23.30;;;11.60;;
21438;SDS011;10880;50.302;18.736;2024-03-06T02:49:17;23.70;;;11.70;;
21438;SDS011;10880;50.302;18.736;2024-03-06T02:51:44;23.97;;;11.57;;
21438;SDS011;10880;50.302;18.736;2024-03-06T02:54:11;29.97;;;13.40;;
21438;SDS011;10880;50.302;18.736;2024-03-06T02:56:38;24.97;;;12.20;;
21438;SDS011;10880;50.302;18.736;2024-03-06T02:59:04;25.93;;;12.20;;
21438;SDS011;10880;50.302;18.736;2024-03-06T03:01:31;23.47;;;11.63;;
21438;SDS011;10880;50.302;18.736;2024-03-06T03:03:57;21.13;;;10.50;;
21438;SDS011;10880;50.302;18.736;2024-03-06T03:06:24;20.53;;;11.50;;
21438;SDS011;10880;50.302;18.736;2024-03-06T03:08:51;24.07;;;11.57;;
21438;SDS011;10880;50.302;18.736;2024-03-06T03:11:18;22.03;;;10.47;;
21438;SDS011;10880;50.302;18.736;2024-03-06T03:13:44;18.23;;;9.80;;
21438;SDS011;10880;50.302;18.736;2024-03-06T03:16:17;20.10;;;10.53;;
21438;SDS011;10880;50.302;18.736;2024-03-06T03:18:46;21.50;;;10.23;;
21438;SDS011;10880;50.302;18.736;2024-03-06T03:21:14;17.13;;;9.20;;
21438;SDS011;10880;50.302;18.736;2024-03-06T03:23:40;19.67;;;10.63;;
21438;SDS011;10880;50.302;18.736;2024-03-06T03:26:07;23.23;;;11.47;;
21438;SDS011;10880;50.302;18.736;2024-03-06T03:28:39;20.90;;;10.37;;
21438;SDS011;10880;50.302;18.736;2024-03-06T03:31:09;17.60;;;9.33;;
21438;SDS011;10880;50.302;18.736;2024-03-06T03:33:39;22.03;;;10.87;;
21438;SDS011;10880;50.302;18.736;2024-03-06T03:36:06;18.67;;;10.13;;
21438;SDS011;10880;50.302;18.736;2024-03-06T03:38:37;25.93;;;12.37;;
21438;SDS011;10880;50.302;18.736;2024-03-06T03:41:09;22.93;;;11.60;;
21438;SDS011;10880;50.302;18.736;2024-03-06T03:43:35;27.50;;;14.13;;
21438;SDS011;10880;50.302;18.736;2024-03-06T03:46:02;22.33;;;11.10;;
21438;SDS011;10880;50.302;18.736;2024-03-06T03:48:30;21.20;;;10.57;;
21438;SDS011;10880;50.302;18.736;2024-03-06T03:50:57;24.13;;;12.17;;
21438;SDS011;10880;50.302;18.736;2024-03-06T03:53:23;29.83;;;13.37;;
21438;SDS011;10880;50.302;18.736;2024-03-06T03:55:50;29.63;;;13.47;;
21438;SDS011;10880;50.302;18.736;2024-03-06T03:58:16;29.27;;;13.03;;
21438;SDS011;10880;50.302;18.736;2024-03-06T04:00:43;34.77;;;15.30;;
21438;SDS011;10880;50.302;18.736;2024-03-06T04:03:10;33.00;;;15.30;;
21438;SDS011;10880;50.302;18.736;2024-03-06T04:05:36;42.33;;;17.60;;
21438;SDS011;10880;50.302;18.736;2024-03-06T04:08:03;31.37;;;13.00;;
21438;SDS011;10880;50.302;18.736;2024-03-06T04:10:32;29.67;;;13.43;;
21438;SDS011;10880;50.302;18.736;2024-03-06T04:12:59;39.43;;;16.33;;
21438;SDS011;10880;50.302;18.736;2024-03-06T04:15:26;35.10;;;13.67;;
21438;SDS011;10880;50.302;18.736;2024-03-06T04:17:53;34.13;;;13.53;;
21438;SDS011;10880;50.302;18.736;2024-03-06T04:20:19;28.17;;;13.00;;
21438;SDS011;10880;50.302;18.736;2024-03-06T04:22:47;32.37;;;13.63;;
21438;SDS011;10880;50.302;18.736;2024-03-06T04:25:17;33.07;;;13.70;;
21438;SDS011;10880;50.302;18.736;2024-03-06T04:27:43;30.07;;;10.90;;
21438;SDS011;10880;50.302;18.736;2024-03-06T04:30:10;32.50;;;13.60;;
21438;SDS011;10880;50.302;18.736;2024-03-06T04:32:37;29.27;;;11.87;;
21438;SDS011;10880;50.302;18.736;2024-03-06T04:35:05;24.43;;;10.40;;
21438;SDS011;10880;50.302;18.736;2024-03-06T04:37:31;22.37;;;9.60;;
21438;SDS011;10880;50.302;18.736;2024-03-06T04:39:59;24.83;;;11.53;;
21438;SDS011;10880;50.302;18.736;2024-03-06T04:42:25;21.17;;;10.73;;
21438;SDS011;10880;50.302;18.736;2024-03-06T04:44:52;20.37;;;9.67;;
21438;SDS011;10880;50.302;18.736;2024-03-06T04:47:19;19.10;;;8.90;;
21438;SDS011;10880;50.302;18.736;2024-03-06T04:49:46;20.73;;;9.30;;
21438;SDS011;10880;50.302;18.736;2024-03-06T04:52:13;24.00;;;10.80;;
21438;SDS011;10880;50.302;18.736;2024-03-06T04:54:39;22.83;;;10.87;;
21438;SDS011;10880;50.302;18.736;2024-03-06T04:57:06;19.80;;;10.60;;
21438;SDS011;10880;50.302;18.736;2024-03-06T04:59:33;22.50;;;10.70;;
21438;SDS011;10880;50.302;18.736;2024-03-06T05:01:59;21.00;;;10.80;;
21438;SDS011;10880;50.302;18.736;2024-03-06T05:04:26;19.10;;;9.47;;
21438;SDS011;10880;50.302;18.736;2024-03-06T05:06:52;15.90;;;9.03;;
21438;SDS011;10880;50.302;18.736;2024-03-06T05:09:19;21.27;;;10.53;;
21438;SDS011;10880;50.302;18.736;2024-03-06T05:11:47;22.97;;;11.13;;
21438;SDS011;10880;50.302;18.736;2024-03-06T05:14:16;20.87;;;9.03;;
21438;SDS011;10880;50.302;18.736;2024-03-06T05:16:43;20.23;;;9.33;;
21438;SDS011;10880;50.302;18.736;2024-03-06T05:19:09;16.33;;;8.60;;
21438;SDS011;10880;50.302;18.736;2024-03-06T05:21:36;17.23;;;8.83;;
21438;SDS011;10880;50.302;18.736;2024-03-06T05:24:03;16.47;;;8.47;;
21438;SDS011;10880;50.302;18.736;2024-03-06T05:26:30;18.77;;;10.00;;
21438;SDS011;10880;50.302;18.736;2024-03-06T05:28:57;17.30;;;8.93;;
21438;SDS011;10880;50.302;18.736;2024-03-06T05:31:23;16.03;;;8.07;;
21438;SDS011;10880;50.302;18.736;2024-03-06T05:33:50;17.17;;;8.40;;
21438;SDS011;10880;50.302;18.736;2024-03-06T05:36:17;18.10;;;8.67;;
21438;SDS011;10880;50.302;18.736;2024-03-06T05:38:44;15.40;;;7.97;;
21438;SDS011;10880;50.302;18.736;2024-03-06T05:41:10;13.20;;;7.77;;
21438;SDS011;10880;50.302;18.736;2024-03-06T05:43:37;16.90;;;8.17;;
21438;SDS011;10880;50.302;18.736;2024-03-06T05:46:06;15.57;;;8.30;;
21438;SDS011;10880;50.302;18.736;2024-03-06T05:48:33;13.63;;;7.53;;
21438;SDS011;10880;50.302;18.736;2024-03-06T05:50:59;13.57;;;6.97;;
21438;SDS011;10880;50.302;18.736;2024-03-06T05:53:26;14.57;;;7.40;;
21438;SDS011;10880;50.302;18.736;2024-03-06T05:55:52;17.30;;;8.83;;
21438;SDS011;10880;50.302;18.736;2024-03-06T05:58:20;16.30;;;8.17;;
21438;SDS011;10880;50.302;18.736;2024-03-06T06:00:46;14.40;;;7.67;;
21438;SDS011;10880;50.302;18.736;2024-03-06T06:03:13;14.50;;;7.80;;
21438;SDS011;10880;50.302;18.736;2024-03-06T06:05:40;12.90;;;6.60;;
21438;SDS011;10880;50.302;18.736;2024-03-06T06:08:07;12.83;;;7.00;;
21438;SDS011;10880;50.302;18.736;2024-03-06T06:10:34;18.30;;;9.00;;
21438;SDS011;10880;50.302;18.736;2024-03-06T06:13:01;18.07;;;9.20;;
21438;SDS011;10880;50.302;18.736;2024-03-06T06:15:30;18.67;;;8.87;;
21438;SDS011;10880;50.302;18.736;2024-03-06T06:17:58;18.17;;;8.50;;
21438;SDS011;10880;50.302;18.736;2024-03-06T06:20:26;20.20;;;8.47;;
21438;SDS011;10880;50.302;18.736;2024-03-06T06:22:54;14.90;;;8.10;;
21438;SDS011;10880;50.302;18.736;2024-03-06T06:25:21;15.93;;;8.50;;
21438;SDS011;10880;50.302;18.736;2024-03-06T06:27:47;17.93;;;8.93;;
21438;SDS011;10880;50.302;18.736;2024-03-06T06:30:15;19.50;;;9.43;;
21438;SDS011;10880;50.302;18.736;2024-03-06T06:32:42;16.70;;;8.43;;
21438;SDS011;10880;50.302;18.736;2024-03-06T06:35:21;18.20;;;8.77;;
21438;SDS011;10880;50.302;18.736;2024-03-06T06:37:50;17.40;;;8.57;;
21438;SDS011;10880;50.302;18.736;2024-03-06T06:40:17;15.83;;;8.33;;
21438;SDS011;10880;50.302;18.736;2024-03-06T06:42:44;17.23;;;8.60;;
21438;SDS011;10880;50.302;18.736;2024-03-06T06:45:15;16.53;;;8.47;;
21438;SDS011;10880;50.302;18.736;2024-03-06T06:47:43;16.87;;;7.77;;
21438;SDS011;10880;50.302;18.736;2024-03-06T06:50:09;15.33;;;7.37;;
21438;SDS011;10880;50.302;18.736;2024-03-06T06:52:39;15.47;;;7.67;;
21438;SDS011;10880;50.302;18.736;2024-03-06T06:55:06;13.13;;;7.43;;
21438;SDS011;10880;50.302;18.736;2024-03-06T06:57:32;13.57;;;7.27;;
21438;SDS011;10880;50.302;18.736;2024-03-06T07:00:01;17.03;;;8.50;;
21438;SDS011;10880;50.302;18.736;2024-03-06T07:02:39;15.63;;;8.07;;
21438;SDS011;10880;50.302;18.736;2024-03-06T07:05:09;16.80;;;7.97;;
21438;SDS011;10880;50.302;18.736;2024-03-06T07:07:36;23.23;;;11.50;;
21438;SDS011;10880;50.302;18.736;2024-03-06T07:10:04;19.97;;;9.70;;
21438;SDS011;10880;50.302;18.736;2024-03-06T07:12:33;17.90;;;9.40;;
21438;SDS011;10880;50.302;18.736;2024-03-06T07:14:59;16.47;;;8.33;;
21438;SDS011;10880;50.302;18.736;2024-03-06T07:17:47;16.40;;;8.67;;
21438;SDS011;10880;50.302;18.736;2024-03-06T07:20:15;18.07;;;9.10;;
21438;SDS011;10880;50.302;18.736;2024-03-06T07:22:43;20.77;;;9.80;;
21438;SDS011;10880;50.302;18.736;2024-03-06T07:25:10;18.60;;;10.00;;
21438;SDS011;10880;50.302;18.736;2024-03-06T07:27:37;15.17;;;8.13;;
21438;SDS011;10880;50.302;18.736;2024-03-06T07:30:05;21.60;;;10.70;;
21438;SDS011;10880;50.302;18.736;2024-03-06T07:32:34;23.53;;;10.77;;
21438;SDS011;10880;50.302;18.736;2024-03-06T07:35:00;18.47;;;9.63;;
21438;SDS011;10880;50.302;18.736;2024-03-06T07:37:29;18.53;;;9.57;;
21438;SDS011;10880;50.302;18.736;2024-03-06T07:39:56;16.00;;;8.00;;
21438;SDS011;10880;50.302;18.736;2024-03-06T07:42:24;18.20;;;9.73;;
21438;SDS011;10880;50.302;18.736;2024-03-06T07:44:51;18.07;;;9.43;;
21438;SDS011;10880;50.302;18.736;2024-03-06T07:47:18;21.10;;;10.60;;
21438;SDS011;10880;50.302;18.736;2024-03-06T07:49:46;19.30;;;9.67;;
21438;SDS011;10880;50.302;18.736;2024-03-06T07:52:13;14.80;;;8.10;;
21438;SDS011;10880;50.302;18.736;2024-03-06T07:54:39;15.33;;;7.80;;
21438;SDS011;10880;50.302;18.736;2024-03-06T07:57:05;12.43;;;7.03;;
21438;SDS011;10880;50.302;18.736;2024-03-06T07:59:32;16.73;;;8.23;;
21438;SDS011;10880;50.302;18.736;2024-03-06T08:01:58;14.00;;;7.83;;
21438;SDS011;10880;50.302;18.736;2024-03-06T08:04:28;12.23;;;6.97;;
21438;SDS011;10880;50.302;18.736;2024-03-06T08:06:54;19.10;;;9.73;;
21438;SDS011;10880;50.302;18.736;2024-03-06T08:09:21;15.27;;;8.60;;
21438;SDS011;10880;50.302;18.736;2024-03-06T08:11:49;18.57;;;10.17;;
21438;SDS011;10880;50.302;18.736;2024-03-06T08:14:21;16.00;;;8.60;;
21438;SDS011;10880;50.302;18.736;2024-03-06T08:16:49;17.00;;;8.40;;
21438;SDS011;10880;50.302;18.736;2024-03-06T08:19:15;17.07;;;8.13;;
21438;SDS011;10880;50.302;18.736;2024-03-06T08:21:42;13.07;;;7.27;;
21438;SDS011;10880;50.302;18.736;2024-03-06T08:24:09;14.17;;;7.47;;
21438;SDS011;10880;50.302;18.736;2024-03-06T08:26:37;12.50;;;7.07;;
21438;SDS011;10880;50.302;18.736;2024-03-06T08:29:03;14.57;;;7.47;;
21438;SDS011;10880;50.302;18.736;2024-03-06T08:31:30;14.47;;;8.03;;
21438;SDS011;10880;50.302;18.736;2024-03-06T08:33:56;12.87;;;7.23;;
21438;SDS011;10880;50.302;18.736;2024-03-06T08:36:23;12.87;;;7.00;;
21438;SDS011;10880;50.302;18.736;2024-03-06T08:38:50;12.90;;;7.57;;
21438;SDS011;10880;50.302;18.736;2024-03-06T08:41:17;15.60;;;7.73;;
21438;SDS011;10880;50.302;18.736;2024-03-06T08:43:43;13.20;;;6.33;;
21438;SDS011;10880;50.302;18.736;2024-03-06T08:46:10;12.93;;;6.97;;
21438;SDS011;10880;50.302;18.736;2024-03-06T08:48:38;12.43;;;6.30;;
21438;SDS011;10880;50.302;18.736;2024-03-06T08:51:05;13.00;;;6.77;;
21438;SDS011;10880;50.302;18.736;2024-03-06T08:53:37;12.10;;;6.37;;
21438;SDS011;10880;50.302;18.736;2024-03-06T08:56:04;15.63;;;7.97;;
21438;SDS011;10880;50.302;18.736;2024-03-06T08:58:32;18.53;;;10.20;;
21438;SDS011;10880;50.302;18.736;2024-03-06T09:00:58;13.23;;;8.20;;
21438;SDS011;10880;50.302;18.736;2024-03-06T09:03:25;13.43;;;7.20;;
21438;SDS011;10880;50.302;18.736;2024-03-06T09:05:51;13.90;;;7.70;;
21438;SDS011;10880;50.302;18.736;2024-03-06T09:08:18;18.17;;;9.87;;
21438;SDS011;10880;50.302;18.736;2024-03-06T09:10:45;14.60;;;8.30;;
21438;SDS011;10880;50.302;18.736;2024-03-06T09:13:11;14.20;;;7.07;;
21438;SDS011;10880;50.302;18.736;2024-03-06T09:15:38;11.13;;;7.10;;
21438;SDS011;10880;50.302;18.736;2024-03-06T09:18:04;16.37;;;8.67;;
21438;SDS011;10880;50.302;18.736;2024-03-06T09:20:31;14.33;;;7.93;;
21438;SDS011;10880;50.302;18.736;2024-03-06T09:22:58;13.23;;;7.33;;
21438;SDS011;10880;50.302;18.736;2024-03-06T09:25:25;17.33;;;8.30;;
21438;SDS011;10880;50.302;18.736;2024-03-06T09:27:52;10.17;;;7.07;;
21438;SDS011;10880;50.302;18.736;2024-03-06T09:30:19;11.70;;;6.60;;
21438;SDS011;10880;50.302;18.736;2024-03-06T09:32:45;11.57;;;7.23;;
21438;SDS011;10880;50.302;18.736;2024-03-06T09:35:12;12.10;;;7.17;;
21438;SDS011;10880;50.302;18.736;2024-03-06T09:37:40;13.70;;;7.80;;
21438;SDS011;10880;50.302;18.736;2024-03-06T09:40:06;9.77;;;6.80;;
21438;SDS011;10880;50.302;18.736;2024-03-06T09:42:34;17.80;;;9.73;;
21438;SDS011;10880;50.302;18.736;2024-03-06T09:45:01;13.30;;;8.70;;
21438;SDS011;10880;50.302;18.736;2024-03-06T09:47:28;14.57;;;8.67;;
21438;SDS011;10880;50.302;18.736;2024-03-06T09:49:58;13.00;;;8.30;;
21438;SDS011;10880;50.302;18.736;2024-03-06T09:52:28;12.70;;;7.50;;
21438;SDS011;10880;50.302;18.736;2024-03-06T09:54:56;14.80;;;8.93;;
21438;SDS011;10880;50.302;18.736;2024-03-06T09:57:23;12.43;;;7.57;;
21438;SDS011;10880;50.302;18.736;2024-03-06T09:59:49;12.47;;;7.00;;
21438;SDS011;10880;50.302;18.736;2024-03-06T10:02:36;9.87;;;6.47;;
21438;SDS011;10880;50.302;18.736;2024-03-06T10:05:04;10.27;;;6.80;;
21438;SDS011;10880;50.302;18.736;2024-03-06T10:07:34;11.30;;;7.23;;
21438;SDS011;10880;50.302;18.736;2024-03-06T10:10:01;11.80;;;7.53;;
21438;SDS011;10880;50.302;18.736;2024-03-06T10:12:27;10.97;;;7.17;;
21438;SDS011;10880;50.302;18.736;2024-03-06T10:14:54;13.37;;;7.97;;
21438;SDS011;10880;50.302;18.736;2024-03-06T10:17:22;8.47;;;5.80;;
21438;SDS011;10880;50.302;18.736;2024-03-06T10:19:49;12.83;;;7.50;;
21438;SDS011;10880;50.302;18.736;2024-03-06T10:22:19;11.93;;;7.50;;
21438;SDS011;10880;50.302;18.736;2024-03-06T10:24:46;11.93;;;7.07;;
21438;SDS011;10880;50.302;18.736;2024-03-06T10:27:16;8.50;;;6.07;;
21438;SDS011;10880;50.302;18.736;2024-03-06T10:29:45;8.50;;;6.07;;
21438;SDS011;10880;50.302;18.736;2024-03-06T10:32:15;7.10;;;5.17;;
21438;SDS011;10880;50.302;18.736;2024-03-06T10:34:44;11.30;;;7.23;;
21438;SDS011;10880;50.302;18.736;2024-03-06T10:37:12;10.67;;;6.93;;
21438;SDS011;10880;50.302;18.736;2024-03-06T10:39:40;11.83;;;7.73;;
21438;SDS011;10880;50.302;18.736;2024-03-06T10:42:09;12.77;;;7.67;;
21438;SDS011;10880;50.302;18.736;2024-03-06T10:44:42;14.27;;;8.80;;
21438;SDS011;10880;50.302;18.736;2024-03-06T10:47:17;10.40;;;7.00;;
21438;SDS011;10880;50.302;18.736;2024-03-06T10:49:45;11.37;;;7.80;;
21438;SDS011;10880;50.302;18.736;2024-03-06T10:52:12;13.63;;;8.70;;
21438;SDS011;10880;50.302;18.736;2024-03-06T10:54:42;12.93;;;8.07;;
21438;SDS011;10880;50.302;18.736;2024-03-06T10:57:11;16.73;;;9.93;;
21438;SDS011;10880;50.302;18.736;2024-03-06T10:59:39;13.93;;;8.77;;
21438;SDS011;10880;50.302;18.736;2024-03-06T11:02:07;12.73;;;7.57;;
21438;SDS011;10880;50.302;18.736;2024-03-06T11:04:35;13.00;;;7.80;;
21438;SDS011;10880;50.302;18.736;2024-03-06T11:07:06;16.27;;;9.57;;
21438;SDS011;10880;50.302;18.736;2024-03-06T11:09:36;14.83;;;9.00;;
21438;SDS011;10880;50.302;18.736;2024-03-06T11:12:06;18.17;;;8.83;;
21438;SDS011;10880;50.302;18.736;2024-03-06T11:14:36;14.07;;;8.67;;
21438;SDS011;10880;50.302;18.736;2024-03-06T11:17:10;12.47;;;7.47;;
21438;SDS011;10880;50.302;18.736;2024-03-06T11:28:17;12.30;;;7.53;;
21438;SDS011;10880;50.302;18.736;2024-03-06T11:30:54;14.67;;;9.00;;
21438;SDS011;10880;50.302;18.736;2024-03-06T11:33:39;14.93;;;8.47;;
21438;SDS011;10880;50.302;18.736;2024-03-06T11:38:59;18.27;;;10.97;;
21438;SDS011;10880;50.302;18.736;2024-03-06T11:44:17;14.47;;;8.03;;
21438;SDS011;10880;50.302;18.736;2024-03-06T11:49:22;15.53;;;8.37;;
21438;SDS011;10880;50.302;18.736;2024-03-06T11:51:55;12.93;;;7.67;;
21438;SDS011;10880;50.302;18.736;2024-03-06T11:54:23;15.27;;;8.50;;
21438;SDS011;10880;50.302;18.736;2024-03-06T11:56:53;12.70;;;7.57;;
21438;SDS011;10880;50.302;18.736;2024-03-06T11:59:28;13.30;;;7.87;;
21438;SDS011;10880;50.302;18.736;2024-03-06T12:01:57;12.90;;;8.20;;
21438;SDS011;10880;50.302;18.736;2024-03-06T12:04:27;14.57;;;8.63;;
21438;SDS011;10880;50.302;18.736;2024-03-06T12:06:56;13.87;;;9.07;;
21438;SDS011;10880;50.302;18.736;2024-03-06T12:09:25;14.87;;;8.80;;
21438;SDS011;10880;50.302;18.736;2024-03-06T12:11:52;12.23;;;7.60;;
21438;SDS011;10880;50.302;18.736;2024-03-06T12:14:21;15.93;;;8.27;;
21438;SDS011;10880;50.302;18.736;2024-03-06T12:16:55;11.77;;;7.47;;
21438;SDS011;10880;50.302;18.736;2024-03-06T12:19:27;14.50;;;8.33;;
21438;SDS011;10880;50.302;18.736;2024-03-06T12:21:58;14.10;;;8.53;;
21438;SDS011;10880;50.302;18.736;2024-03-06T12:24:26;16.60;;;9.37;;
21438;SDS011;10880;50.302;18.736;2024-03-06T12:27:05;11.50;;;7.23;;
21438;SDS011;10880;50.302;18.736;2024-03-06T12:29:35;13.50;;;8.60;;
21438;SDS011;10880;50.302;18.736;2024-03-06T12:32:02;10.57;;;6.53;;
21438;SDS011;10880;50.302;18.736;2024-03-06T12:34:29;11.47;;;6.37;;
21438;SDS011;10880;50.302;18.736;2024-03-06T12:37:08;13.23;;;7.07;;
21438;SDS011;10880;50.302;18.736;2024-03-06T12:39:36;9.80;;;6.27;;
21438;SDS011;10880;50.302;18.736;2024-03-06T12:42:03;9.80;;;6.40;;
21438;SDS011;10880;50.302;18.736;2024-03-06T12:44:29;9.57;;;6.00;;
21438;SDS011;10880;50.302;18.736;2024-03-06T12:46:56;10.07;;;6.70;;
21438;SDS011;10880;50.302;18.736;2024-03-06T12:49:22;13.40;;;8.10;;
21438;SDS011;10880;50.302;18.736;2024-03-06T12:51:49;10.33;;;6.73;;
21438;SDS011;10880;50.302;18.736;2024-03-06T12:54:15;8.90;;;6.23;;
21438;SDS011;10880;50.302;18.736;2024-03-06T12:56:42;12.30;;;7.30;;
21438;SDS011;10880;50.302;18.736;2024-03-06T12:59:08;11.33;;;7.00;;
21438;SDS011;10880;50.302;18.736;2024-03-06T13:01:35;12.53;;;7.67;;
21438;SDS011;10880;50.302;18.736;2024-03-06T13:04:03;13.27;;;7.47;;
21438;SDS011;10880;50.302;18.736;2024-03-06T13:06:39;14.43;;;8.33;;
21438;SDS011;10880;50.302;18.736;2024-03-06T13:09:06;11.03;;;6.30;;
21438;SDS011;10880;50.302;18.736;2024-03-06T13:11:32;8.13;;;5.70;;
21438;SDS011;10880;50.302;18.736;2024-03-06T13:13:59;8.47;;;5.50;;
21438;SDS011;10880;50.302;18.736;2024-03-06T13:16:27;8.77;;;6.00;;
21438;SDS011;10880;50.302;18.736;2024-03-06T13:18:55;10.00;;;6.70;;
21438;SDS011;10880;50.302;18.736;2024-03-06T13:21:26;11.57;;;6.73;;
21438;SDS011;10880;50.302;18.736;2024-03-06T13:24:10;11.63;;;7.50;;
21438;SDS011;10880;50.302;18.736;2024-03-06T13:26:37;18.53;;;10.27;;
21438;SDS011;10880;50.302;18.736;2024-03-06T13:29:09;12.57;;;7.17;;
21438;SDS011;10880;50.302;18.736;2024-03-06T13:31:36;10.20;;;5.90;;
21438;SDS011;10880;50.302;18.736;2024-03-06T13:34:05;12.87;;;7.53;;
21438;SDS011;10880;50.302;18.736;2024-03-06T13:36:33;9.60;;;6.57;;
21438;SDS011;10880;50.302;18.736;2024-03-06T13:38:59;8.87;;;5.80;;
21438;SDS011;10880;50.302;18.736;2024-03-06T13:41:26;10.97;;;6.70;;
21438;SDS011;10880;50.302;18.736;2024-03-06T13:43:53;10.77;;;6.23;;
21438;SDS011;10880;50.302;18.736;2024-03-06T13:46:19;10.77;;;6.60;;
21438;SDS011;10880;50.302;18.736;2024-03-06T13:48:45;11.70;;;6.57;;
21438;SDS011;10880;50.302;18.736;2024-03-06T13:51:12;13.00;;;7.80;;
21438;SDS011;10880;50.302;18.736;2024-03-06T13:53:39;12.87;;;7.63;;
21438;SDS011;10880;50.302;18.736;2024-03-06T13:56:05;15.03;;;8.70;;
21438;SDS011;10880;50.302;18.736;2024-03-06T13:58:32;20.50;;;10.97;;
21438;SDS011;10880;50.302;18.736;2024-03-06T14:00:58;20.07;;;11.17;;
21438;SDS011;10880;50.302;18.736;2024-03-06T14:03:25;14.87;;;9.13;;
21438;SDS011;10880;50.302;18.736;2024-03-06T14:05:51;15.87;;;9.23;;
21438;SDS011;10880;50.302;18.736;2024-03-06T14:08:18;19.67;;;10.73;;
21438;SDS011;10880;50.302;18.736;2024-03-06T14:10:44;17.07;;;9.20;;
21438;SDS011;10880;50.302;18.736;2024-03-06T14:13:12;14.27;;;8.37;;
21438;SDS011;10880;50.302;18.736;2024-03-06T14:15:40;12.97;;;7.47;;
21438;SDS011;10880;50.302;18.736;2024-03-06T14:18:06;14.30;;;8.37;;
21438;SDS011;10880;50.302;18.736;2024-03-06T14:20:32;14.43;;;8.67;;
21438;SDS011;10880;50.302;18.736;2024-03-06T14:22:59;12.97;;;7.47;;
21438;SDS011;10880;50.302;18.736;2024-03-06T14:25:25;14.67;;;8.50;;
21438;SDS011;10880;50.302;18.736;2024-03-06T14:27:53;13.27;;;8.30;;
21438;SDS011;10880;50.302;18.736;2024-03-06T14:30:21;13.37;;;7.40;;
21438;SDS011;10880;50.302;18.736;2024-03-06T14:32:48;10.03;;;6.87;;
21438;SDS011;10880;50.302;18.736;2024-03-06T14:35:14;12.53;;;7.10;;
21438;SDS011;10880;50.302;18.736;2024-03-06T14:37:41;12.03;;;7.23;;